createdAt,value
2018-03-15T00:02:37.075Z,9.49
2018-03-15T00:08:27.734Z,11.59
2018-03-15T00:14:18.346Z,9.15
2018-03-15T00:20:08.956Z,12.46
2018-03-15T00:25:59.625Z,13.89
2018-03-15T00:31:50.278Z,15.78
2018-03-15T00:37:40.936Z,14.42
2018-03-15T00:43:31.568Z,12.84
2018-03-15T00:49:22.195Z,10.39
2018-03-15T00:55:12.822Z,11.05
2018-03-15T01:01:03.486Z,7.99
2018-03-15T01:06:54.104Z,9.69
2018-03-15T01:12:44.765Z,9.03
2018-03-15T01:18:35.394Z,11.47
2018-03-15T01:24:26.062Z,10.28
2018-03-15T01:30:16.730Z,8.5
2018-03-15T01:36:07.360Z,10.2
2018-03-15T01:41:58.036Z,15.08
2018-03-15T01:47:48.670Z,19.14
2018-03-15T01:53:39.300Z,14.28
2018-03-15T01:59:29.961Z,16.18
2018-03-15T02:05:20.591Z,13.9
2018-03-15T02:11:11.275Z,18.17
2018-03-15T02:17:01.930Z,12.3
2018-03-15T02:22:52.557Z,11.9
2018-03-15T02:28:43.211Z,16.06
2018-03-15T02:34:39.951Z,12.38
2018-03-15T02:40:30.537Z,15.28
2018-03-15T02:46:21.210Z,15.11
2018-03-15T02:52:11.953Z,20.09
2018-03-15T02:58:02.522Z,17.29
2018-03-15T03:03:53.134Z,16.72
2018-03-15T03:09:43.762Z,18.27
2018-03-15T03:15:34.423Z,14.5
2018-03-15T03:21:25.070Z,10.37
2018-03-15T03:27:15.723Z,12.56
2018-03-15T03:33:06.370Z,12.45
2018-03-15T03:38:57.023Z,11.5
2018-03-15T03:44:47.707Z,19.64
2018-03-15T03:50:38.317Z,15.17
2018-03-15T03:56:28.980Z,13.59
2018-03-15T04:02:19.645Z,15.63
2018-03-15T04:08:10.281Z,15.19
2018-03-15T04:14:00.923Z,14.43
2018-03-15T04:19:51.610Z,14.07
2018-03-15T04:25:42.234Z,22.69
2018-03-15T04:31:32.841Z,19.46
2018-03-15T04:37:23.531Z,18.9
2018-03-15T04:43:14.176Z,24.8
2018-03-15T04:49:04.832Z,18.4
2018-03-15T04:54:55.452Z,18.2
2018-03-15T05:00:46.130Z,18.27
2018-03-15T05:06:36.756Z,17.47
2018-03-15T05:12:27.421Z,16.67
2018-03-15T05:18:18.055Z,19.65
2018-03-15T05:24:08.704Z,16.14
2018-03-15T05:29:59.433Z,14.62
2018-03-15T05:35:49.970Z,15.69
2018-03-15T05:41:40.604Z,11.83
2018-03-15T05:47:31.230Z,10.93
2018-03-15T05:53:21.885Z,14.21
2018-03-15T05:59:12.604Z,10.05
2018-03-15T06:05:03.194Z,10.47
2018-03-15T06:10:53.818Z,20.99
2018-03-15T06:16:44.430Z,20.58
2018-03-15T06:22:35.127Z,19.18
2018-03-15T06:28:25.708Z,14.89
2018-03-15T06:34:16.387Z,20.52
2018-03-15T06:40:07.047Z,21.49
2018-03-15T06:45:57.703Z,21.74
2018-03-15T06:51:48.340Z,26.9
2018-03-15T06:57:39.002Z,22.37
2018-03-15T07:03:29.699Z,19.6
2018-03-15T07:09:20.335Z,22.38
2018-03-15T07:15:11.034Z,16.63
2018-03-15T07:21:01.704Z,14.74
2018-03-15T07:26:52.404Z,21.74
2018-03-15T07:32:43.073Z,17
2018-03-15T07:38:33.666Z,15.16
2018-03-15T07:44:24.373Z,19.24
2018-03-15T07:50:15.011Z,23.65
2018-03-15T07:56:05.682Z,30.34
2018-03-15T08:01:56.401Z,40.66
2018-03-15T08:07:47.101Z,46.57
2018-03-15T08:13:37.764Z,42.14
2018-03-15T08:19:28.472Z,27.94
2018-03-15T08:25:19.131Z,30.15
2018-03-15T08:31:09.887Z,29.88
2018-03-15T08:37:00.507Z,32.54
2018-03-15T08:42:51.180Z,28.06
2018-03-15T08:48:41.902Z,28.27
2018-03-15T08:54:32.581Z,23.43
2018-03-15T09:00:23.357Z,27.24
2018-03-15T09:06:14.024Z,28.8
2018-03-15T09:12:04.764Z,25.88
2018-03-15T09:17:55.472Z,22.15
2018-03-15T09:23:46.182Z,20.6
2018-03-15T09:29:36.947Z,19.29
2018-03-15T09:35:27.680Z,16.98
2018-03-15T09:41:18.438Z,13.83
2018-03-15T09:47:09.198Z,15.11
2018-03-15T09:52:59.905Z,14.37
2018-03-15T09:58:50.625Z,15.8
2018-03-15T10:04:41.346Z,20.05
2018-03-15T10:10:32.064Z,18.37
2018-03-15T10:16:22.830Z,15.25
2018-03-15T10:22:13.563Z,13.95
2018-03-15T10:28:04.238Z,16.32
2018-03-15T10:33:54.902Z,15
2018-03-15T10:39:45.656Z,17.27
2018-03-15T10:45:36.394Z,14.57
2018-03-15T10:51:27.086Z,14.65
2018-03-15T10:57:17.769Z,14.74
2018-03-15T11:03:08.484Z,10.64
2018-03-15T11:08:59.128Z,10.55
2018-03-15T11:14:49.827Z,9.4
2018-03-15T11:20:40.556Z,14.14
2018-03-15T11:32:21.939Z,10.04
2018-03-15T11:38:12.672Z,14.36
2018-03-15T11:44:03.362Z,8.59
2018-03-15T11:49:54.099Z,14.19
2018-03-15T11:55:44.754Z,12.13
2018-03-15T12:01:35.476Z,8.18
2018-03-15T12:07:26.182Z,11.26
2018-03-15T12:13:16.864Z,7.62
2018-03-15T12:19:07.590Z,10.23
2018-03-15T12:24:58.263Z,15.36
2018-03-15T12:30:48.936Z,14.21
2018-03-15T12:36:39.647Z,10.63
2018-03-15T12:42:30.344Z,11.82
2018-03-15T12:48:21.025Z,11.56
2018-03-15T12:54:11.690Z,13.6
2018-03-15T13:00:02.632Z,9.38
2018-03-15T13:05:53.159Z,5.1
2018-03-15T13:11:43.763Z,7.93
2018-03-15T13:17:34.481Z,11.95
2018-03-15T13:23:25.181Z,8.5
2018-03-15T13:29:15.832Z,7.47
2018-03-15T13:35:06.586Z,9.76
2018-03-15T13:40:57.228Z,11.38
2018-03-15T13:46:47.908Z,8.73
2018-03-15T13:52:38.643Z,9.21
2018-03-15T13:58:29.299Z,9.34
2018-03-15T14:04:20.044Z,8.24
2018-03-15T14:10:10.692Z,11.08
2018-03-15T14:16:01.359Z,7.35
2018-03-15T14:21:52.055Z,8.64
2018-03-15T14:27:42.712Z,8.52
2018-03-15T14:33:33.382Z,9.08
2018-03-15T14:39:24.101Z,11.68
2018-03-15T14:45:14.812Z,9.18
2018-03-15T14:51:05.437Z,8.73
2018-03-15T14:56:56.174Z,11.51
2018-03-15T15:02:46.876Z,7.68
2018-03-15T15:08:37.521Z,7.41
2018-03-15T15:14:28.232Z,9.72
2018-03-15T15:20:18.869Z,8.94
2018-03-15T15:26:09.607Z,8.57
2018-03-15T15:32:00.257Z,9.17
2018-03-15T15:37:50.926Z,10.54
2018-03-15T15:43:41.630Z,7.87
2018-03-15T15:49:32.292Z,5.09
2018-03-15T15:55:23.012Z,8.77
2018-03-15T16:01:13.687Z,8.7
2018-03-15T16:07:04.386Z,9.52
2018-03-15T16:12:55.045Z,7.86
2018-03-15T16:18:45.706Z,11.02
2018-03-15T16:24:36.411Z,7.41
2018-03-15T16:30:27.066Z,7.03
2018-03-15T16:36:17.774Z,10.03
2018-03-15T16:42:08.473Z,10.73
2018-03-15T16:47:59.119Z,10.14
2018-03-15T16:53:49.769Z,14.08
2018-03-15T16:59:40.473Z,11.59
2018-03-15T17:05:31.146Z,14.48
2018-03-15T17:11:21.821Z,12.27
2018-03-15T17:17:12.498Z,12.51
2018-03-15T17:23:03.144Z,12.92
2018-03-15T17:28:53.860Z,15.15
2018-03-15T17:34:44.531Z,15.09
2018-03-15T17:40:35.214Z,10.8
2018-03-15T17:46:25.875Z,13.76
2018-03-15T17:52:16.590Z,11.57
2018-03-15T17:58:07.248Z,8.88
2018-03-15T18:03:57.954Z,9.01
2018-03-15T18:09:48.592Z,5.8
2018-03-15T18:15:39.313Z,7.55
2018-03-15T18:21:29.931Z,4.97
2018-03-15T18:27:20.620Z,5.52
2018-03-15T18:33:11.326Z,7.34
2018-03-15T18:39:01.997Z,7.62
2018-03-15T18:44:52.653Z,6.76
2018-03-15T18:50:43.374Z,6.64
2018-03-15T18:56:34.024Z,9.96
2018-03-15T19:02:24.757Z,7.87
2018-03-15T19:08:15.417Z,6.9
2018-03-15T19:14:06.073Z,4.68
2018-03-15T19:19:56.720Z,6.46
2018-03-15T19:25:47.441Z,8.3
2018-03-15T19:31:38.083Z,6.98
2018-03-15T19:37:28.756Z,6.41
2018-03-15T19:43:19.471Z,5.81
2018-03-15T19:49:10.138Z,6.19
2018-03-15T19:55:00.819Z,7.24
2018-03-15T20:00:51.506Z,5.71
2018-03-15T20:06:42.224Z,5.75
2018-03-15T20:12:32.833Z,9.57
2018-03-15T20:18:23.493Z,6.22
2018-03-15T20:24:14.185Z,4.6
2018-03-15T20:30:04.903Z,6.55
2018-03-15T20:35:55.584Z,9.63
2018-03-15T20:41:46.235Z,7.1
2018-03-15T20:47:36.949Z,6.43
2018-03-15T20:53:27.634Z,9.63
2018-03-15T20:59:18.280Z,11.8
2018-03-15T21:05:08.992Z,9.73
2018-03-15T21:10:59.679Z,8.79
2018-03-15T21:16:50.335Z,10.92
2018-03-15T21:22:41.009Z,11
2018-03-15T21:28:31.731Z,11.2
2018-03-15T21:34:22.418Z,12.8
2018-03-15T21:40:13.072Z,13.99
2018-03-15T21:46:03.791Z,12.25
2018-03-15T21:51:54.471Z,12.79
2018-03-15T21:57:45.147Z,10.49
2018-03-15T22:03:35.867Z,5.9
2018-03-15T22:09:26.498Z,5.03
2018-03-15T22:15:17.195Z,6.77
2018-03-15T22:21:07.830Z,10.15
2018-03-15T22:26:58.526Z,6.81
2018-03-15T22:32:49.214Z,15.67
2018-03-15T22:38:39.913Z,6.87
2018-03-15T22:44:30.610Z,4.05
2018-03-15T22:50:21.271Z,3.26
2018-03-15T22:56:11.975Z,5.15
2018-03-15T23:02:02.680Z,4.9
2018-03-15T23:07:53.323Z,2.49
2018-03-15T23:13:44.004Z,2.8
2018-03-15T23:19:34.689Z,2.68
2018-03-15T23:25:25.477Z,2.3
2018-03-15T23:31:16.155Z,3.09
2018-03-15T23:37:06.776Z,2.45
2018-03-15T23:42:57.477Z,4.06
2018-03-15T23:48:48.145Z,1.65
2018-03-15T23:54:38.840Z,1.35
